Time;durP1;ratioP1;P1;durP2;ratioP2;P2;SDS_P1;SDS_P2;PMS_P1;PMS_P2;Temp;Humidity;BMP_temperature;BMP_pressure;BME280_temperature;BME280_humidity;BME280_pressure;Samples;Min_cycle;Max_cycle;Signal;HPM_P1;HPM_P2
2022/08/30 00:01:04;;;;;;;4.60;4.28;;;;;;;;;;5061449;28;20220;-69
2022/08/30 00:03:31;;;;;;;5.28;4.75;;;;;;;;;;5061531;28;20193;-69
2022/08/30 00:05:57;;;;;;;6.13;4.45;;;;;;;;;;5061781;28;20469;-69
2022/08/30 00:08:24;;;;;;;4.40;4.13;;;;;;;;;;5061730;28;20407;-69
2022/08/30 00:10:50;;;;;;;7.15;4.47;;;;;;;;;;5061567;28;20197;-69
2022/08/30 00:13:17;;;;;;;6.13;4.28;;;;;;;;;;5061574;28;20201;-69
2022/08/30 00:15:45;;;;;;;5.10;4.65;;;;;;;;;;5061556;28;20272;-69
2022/08/30 00:18:11;;;;;;;4.80;4.38;;;;;;;;;;5061433;28;20259;-69
2022/08/30 00:20:38;;;;;;;5.13;4.63;;;;;;;;;;5063099;28;20205;-69
2022/08/30 00:23:05;;;;;;;5.15;4.53;;;;;;;;;;5065456;28;20201;-69
2022/08/30 00:25:31;;;;;;;5.85;4.93;;;;;;;;;;5065277;28;20205;-69
2022/08/30 00:27:57;;;;;;;5.00;4.60;;;;;;;;;;5064970;28;20415;-69
2022/08/30 00:30:24;;;;;;;5.38;4.95;;;;;;;;;;5064744;28;20197;-69
2022/08/30 00:32:52;;;;;;;5.45;4.95;;;;;;;;;;5065313;28;20197;-69
2022/08/30 00:35:19;;;;;;;5.22;4.57;;;;;;;;;;5065258;28;20378;-69
2022/08/30 00:37:46;;;;;;;6.00;5.20;;;;;;;;;;5065156;28;20193;-69
2022/08/30 00:40:14;;;;;;;5.53;5.00;;;;;;;;;;5064698;28;20375;-69
2022/08/30 00:42:41;;;;;;;6.75;5.53;;;;;;;;;;5064764;28;20207;-69
2022/08/30 00:45:11;;;;;;;4.90;4.50;;;;;;;;;;5064664;28;20201;-69
2022/08/30 00:47:38;;;;;;;4.45;4.25;;;;;;;;;;5064939;28;20221;-69
2022/08/30 00:50:07;;;;;;;5.20;4.72;;;;;;;;;;5064552;28;20500;-69
2022/08/30 00:52:34;;;;;;;5.43;4.93;;;;;;;;;;5064833;28;20197;-69
2022/08/30 00:55:01;;;;;;;6.57;4.55;;;;;;;;;;5064640;28;20197;-69
2022/08/30 00:57:28;;;;;;;6.03;4.55;;;;;;;;;;5064749;28;20204;-69
2022/08/30 00:59:54;;;;;;;5.80;5.30;;;;;;;;;;5064491;28;20193;-69
2022/08/30 01:02:22;;;;;;;8.82;5.43;;;;;;;;;;5064586;28;20204;-69
2022/08/30 01:04:50;;;;;;;5.78;5.20;;;;;;;;;;5064475;28;20221;-69
2022/08/30 01:07:18;;;;;;;5.60;5.15;;;;;;;;;;5064607;28;20347;-69
2022/08/30 01:09:44;;;;;;;5.65;5.15;;;;;;;;;;5064209;28;20201;-69
2022/08/30 01:12:11;;;;;;;6.32;5.00;;;;;;;;;;5064317;28;20220;-69
2022/08/30 01:14:37;;;;;;;5.97;5.40;;;;;;;;;;5064552;28;20508;-69
2022/08/30 01:17:04;;;;;;;6.68;5.28;;;;;;;;;;5064341;28;20201;-69
2022/08/30 01:19:34;;;;;;;5.53;5.00;;;;;;;;;;5063888;28;20196;-69
2022/08/30 01:22:03;;;;;;;6.28;5.18;;;;;;;;;;5064029;28;20208;-69
2022/08/30 01:24:57;;;;;;;9.35;5.70;;;;;;;;;;5064124;28;20204;-69
2022/08/30 01:27:25;;;;;;;6.00;5.35;;;;;;;;;;5063523;28;20573;-69
2022/08/30 01:29:53;;;;;;;8.63;5.63;;;;;;;;;;5063955;28;20204;-69
2022/08/30 01:32:20;;;;;;;7.57;5.57;;;;;;;;;;5063028;28;20219;-69
2022/08/30 01:34:47;;;;;;;5.53;5.03;;;;;;;;;;5063973;28;20197;-69
2022/08/30 01:37:15;;;;;;;7.07;5.60;;;;;;;;;;5063870;28;20193;-69
2022/08/30 01:39:42;;;;;;;5.75;5.22;;;;;;;;;;5063530;28;20204;-69
2022/08/30 01:42:08;;;;;;;6.85;5.22;;;;;;;;;;5064054;28;20264;-69
2022/08/30 01:44:36;;;;;;;6.03;5.07;;;;;;;;;;5063783;28;20197;-69
2022/08/30 01:47:02;;;;;;;6.72;5.45;;;;;;;;;;5063536;28;20197;-69
2022/08/30 01:49:29;;;;;;;6.30;5.40;;;;;;;;;;5063474;28;20403;-69
2022/08/30 01:51:55;;;;;;;5.78;5.22;;;;;;;;;;5063493;28;20198;-69
2022/08/30 01:54:22;;;;;;;6.28;5.38;;;;;;;;;;5063445;28;20204;-69
2022/08/30 01:56:48;;;;;;;5.80;5.28;;;;;;;;;;5063462;28;20212;-69
2022/08/30 01:59:14;;;;;;;7.93;5.43;;;;;;;;;;5063416;28;20193;-69
2022/08/30 02:01:42;;;;;;;6.25;5.68;;;;;;;;;;5063632;28;20505;-69
2022/08/30 02:04:10;;;;;;;6.18;5.55;;;;;;;;;;5063388;28;20204;-69
2022/08/30 02:06:38;;;;;;;7.10;5.57;;;;;;;;;;5063188;28;20255;-69
2022/08/30 02:09:04;;;;;;;6.93;5.15;;;;;;;;;;5062934;28;20740;-69
2022/08/30 02:11:30;;;;;;;5.43;5.03;;;;;;;;;;5063580;28;20209;-69
2022/08/30 02:13:56;;;;;;;5.90;5.30;;;;;;;;;;5063372;28;20196;-69
2022/08/30 02:16:23;;;;;;;4.85;4.55;;;;;;;;;;5063284;28;20204;-69
2022/08/30 02:18:51;;;;;;;6.53;5.10;;;;;;;;;;5062719;28;20193;-69
2022/08/30 02:21:18;;;;;;;6.13;5.55;;;;;;;;;;5062941;28;20197;-69
2022/08/30 02:23:44;;;;;;;5.68;5.15;;;;;;;;;;5063227;28;20370;-69
2022/08/30 02:26:11;;;;;;;5.43;4.93;;;;;;;;;;5063077;28;20548;-69
2022/08/30 02:28:37;;;;;;;8.82;5.60;;;;;;;;;;5062821;28;20225;-69
2022/08/30 02:31:04;;;;;;;5.72;5.22;;;;;;;;;;5062738;28;20197;-69
2022/08/30 02:33:30;;;;;;;5.50;5.00;;;;;;;;;;5062763;28;20396;-69
2022/08/30 02:35:58;;;;;;;6.85;5.53;;;;;;;;;;5062756;28;20427;-69
2022/08/30 02:38:24;;;;;;;5.70;5.22;;;;;;;;;;5062950;28;20197;-69
2022/08/30 02:40:51;;;;;;;6.70;4.93;;;;;;;;;;5062419;28;20197;-69
2022/08/30 02:43:17;;;;;;;5.45;4.88;;;;;;;;;;5062576;28;20200;-69
2022/08/30 02:45:43;;;;;;;6.90;5.70;;;;;;;;;;5062717;28;20219;-69
2022/08/30 02:48:10;;;;;;;6.25;5.65;;;;;;;;;;5062428;28;20213;-69
2022/08/30 02:50:39;;;;;;;5.80;5.30;;;;;;;;;;5062253;28;20535;-69
2022/08/30 02:53:06;;;;;;;5.20;4.65;;;;;;;;;;5062634;28;20201;-69
2022/08/30 02:55:33;;;;;;;5.75;5.30;;;;;;;;;;5062580;28;20197;-69
2022/08/30 02:57:59;;;;;;;6.28;5.50;;;;;;;;;;5062385;28;20201;-69
2022/08/30 03:00:25;;;;;;;6.78;5.80;;;;;;;;;;5062234;28;20211;-69
2022/08/30 03:02:52;;;;;;;5.55;5.15;;;;;;;;;;5062263;28;20204;-69
2022/08/30 03:05:18;;;;;;;7.30;5.97;;;;;;;;;;5062116;28;20396;-69
2022/08/30 03:07:46;;;;;;;7.53;5.90;;;;;;;;;;5062473;28;20536;-69
2022/08/30 03:10:14;;;;;;;7.22;6.10;;;;;;;;;;5061927;28;20201;-69
2022/08/30 03:12:41;;;;;;;7.60;5.45;;;;;;;;;;5062317;28;20201;-69
2022/08/30 03:15:08;;;;;;;8.57;6.05;;;;;;;;;;5062063;28;20203;-69
2022/08/30 03:17:34;;;;;;;6.72;5.68;;;;;;;;;;5062058;28;20501;-69
2022/08/30 03:20:01;;;;;;;6.40;5.80;;;;;;;;;;5061800;28;20209;-69
2022/08/30 03:22:27;;;;;;;8.23;5.70;;;;;;;;;;5062305;28;20212;-69
2022/08/30 03:24:56;;;;;;;8.05;6.50;;;;;;;;;;5062070;28;20235;-69
2022/08/30 03:27:24;;;;;;;8.32;7.50;;;;;;;;;;5062233;28;20317;-69
2022/08/30 03:29:50;;;;;;;6.78;6.28;;;;;;;;;;5061786;28;20201;-69
2022/08/30 03:32:16;;;;;;;6.90;6.30;;;;;;;;;;5061842;28;20204;-69
2022/08/30 03:34:43;;;;;;;6.22;5.72;;;;;;;;;;5062156;28;20203;-69
2022/08/30 03:37:09;;;;;;;9.60;5.93;;;;;;;;;;5061968;28;20219;-69
2022/08/30 03:39:35;;;;;;;6.38;5.82;;;;;;;;;;5061844;28;20200;-69
2022/08/30 03:42:02;;;;;;;6.45;5.82;;;;;;;;;;5062125;28;20208;-69
2022/08/30 03:44:30;;;;;;;7.32;6.15;;;;;;;;;;5061846;28;20200;-69
2022/08/30 03:46:56;;;;;;;8.00;6.00;;;;;;;;;;5061707;28;20560;-69
2022/08/30 03:49:23;;;;;;;6.03;5.53;;;;;;;;;;5061652;28;20220;-69
2022/08/30 03:51:49;;;;;;;6.32;5.82;;;;;;;;;;5061819;28;20224;-69
2022/08/30 03:54:16;;;;;;;6.10;5.50;;;;;;;;;;5061891;28;20201;-69
2022/08/30 03:56:42;;;;;;;6.18;5.68;;;;;;;;;;5065105;28;20215;-69
2022/08/30 03:59:09;;;;;;;6.22;5.63;;;;;;;;;;5065783;28;20197;-69
2022/08/30 04:01:36;;;;;;;6.65;6.13;;;;;;;;;;5065548;28;20209;-69
2022/08/30 04:04:03;;;;;;;6.18;5.57;;;;;;;;;;5065669;28;20197;-69
2022/08/30 04:06:29;;;;;;;6.40;5.80;;;;;;;;;;5065645;28;20216;-69
2022/08/30 04:08:55;;;;;;;7.05;6.28;;;;;;;;;;5065520;28;20217;-69
2022/08/30 04:11:22;;;;;;;7.70;6.38;;;;;;;;;;5065538;28;20555;-69
2022/08/30 04:13:50;;;;;;;7.10;6.15;;;;;;;;;;5065471;28;20520;-69
2022/08/30 04:16:17;;;;;;;7.22;6.60;;;;;;;;;;5065531;28;20205;-67
2022/08/30 04:18:44;;;;;;;7.30;6.13;;;;;;;;;;5065440;28;20193;-67
2022/08/30 04:21:10;;;;;;;7.10;6.40;;;;;;;;;;5065319;28;20220;-67
2022/08/30 04:23:37;;;;;;;7.57;6.20;;;;;;;;;;5065436;28;20220;-67
2022/08/30 04:26:03;;;;;;;7.75;6.95;;;;;;;;;;5065312;28;20311;-67
2022/08/30 04:28:30;;;;;;;8.32;5.90;;;;;;;;;;5065030;28;20221;-67
2022/08/30 04:30:56;;;;;;;7.53;6.15;;;;;;;;;;5065204;28;20388;-67
2022/08/30 04:33:23;;;;;;;6.72;6.10;;;;;;;;;;5065269;28;20205;-67
2022/08/30 04:35:51;;;;;;;7.05;5.63;;;;;;;;;;5065233;28;20208;-67
2022/08/30 04:38:17;;;;;;;7.40;5.90;;;;;;;;;;5065193;28;20205;-67
2022/08/30 04:40:44;;;;;;;12.40;6.47;;;;;;;;;;5065204;28;20196;-67
2022/08/30 04:43:11;;;;;;;6.70;6.07;;;;;;;;;;5065335;28;20204;-67
2022/08/30 04:45:38;;;;;;;7.88;6.47;;;;;;;;;;5065017;28;20501;-67
2022/08/30 04:48:05;;;;;;;7.13;6.38;;;;;;;;;;5064916;28;20197;-67
2022/08/30 04:50:31;;;;;;;7.88;6.15;;;;;;;;;;5064651;28;20204;-67
2022/08/30 04:52:58;;;;;;;6.97;6.47;;;;;;;;;;5064675;28;20193;-67
2022/08/30 04:55:25;;;;;;;7.18;5.90;;;;;;;;;;5064991;28;20484;-69
2022/08/30 04:57:51;;;;;;;8.50;5.90;;;;;;;;;;5064687;28;20205;-68
2022/08/30 05:00:19;;;;;;;10.88;6.60;;;;;;;;;;5064364;28;20201;-68
2022/08/30 05:02:46;;;;;;;6.65;6.05;;;;;;;;;;5064692;28;20400;-68
2022/08/30 05:07:57;;;;;;;10.25;5.95;;;;;;;;;;5063666;28;20481;-68
2022/08/30 05:10:26;;;;;;;6.93;6.22;;;;;;;;;;5064045;28;20204;-68
2022/08/30 05:12:52;;;;;;;7.43;6.60;;;;;;;;;;5064364;28;20197;-68
2022/08/30 05:15:19;;;;;;;11.10;7.38;;;;;;;;;;5064412;28;20206;-68
2022/08/30 05:17:45;;;;;;;9.43;6.20;;;;;;;;;;5064234;28;20200;-68
2022/08/30 05:20:12;;;;;;;10.13;7.20;;;;;;;;;;5063691;28;20203;-68
2022/08/30 05:22:39;;;;;;;8.25;7.38;;;;;;;;;;5063793;28;20189;-68
2022/08/30 05:25:06;;;;;;;8.45;7.45;;;;;;;;;;5064059;28;20212;-68
2022/08/30 05:27:33;;;;;;;9.73;7.40;;;;;;;;;;5064046;28;20206;-68
2022/08/30 05:30:00;;;;;;;10.73;7.78;;;;;;;;;;5063471;28;20217;-68
2022/08/30 05:32:26;;;;;;;11.07;8.73;;;;;;;;;;5063854;28;20543;-68
2022/08/30 05:34:52;;;;;;;17.42;9.23;;;;;;;;;;5063834;28;20531;-68
2022/08/30 05:37:18;;;;;;;11.65;8.48;;;;;;;;;;5063597;28;20200;-68
2022/08/30 05:39:45;;;;;;;12.05;7.80;;;;;;;;;;5063591;28;20197;-68
2022/08/30 05:42:11;;;;;;;11.52;7.28;;;;;;;;;;5063720;28;20208;-68
2022/08/30 05:44:38;;;;;;;8.35;7.38;;;;;;;;;;5063493;28;20197;-68
2022/08/30 05:47:05;;;;;;;10.68;8.05;;;;;;;;;;5063519;28;20197;-68
2022/08/30 05:49:31;;;;;;;8.98;7.20;;;;;;;;;;5063207;28;20220;-68
2022/08/30 05:51:57;;;;;;;8.13;7.38;;;;;;;;;;5063330;28;20197;-68
2022/08/30 05:54:24;;;;;;;9.13;7.70;;;;;;;;;;5063203;28;20208;-68
2022/08/30 05:56:50;;;;;;;9.35;8.35;;;;;;;;;;5063265;28;20531;-68
2022/08/30 05:59:16;;;;;;;9.90;7.93;;;;;;;;;;5063083;28;20394;-69
2022/08/30 06:01:45;;;;;;;11.68;8.82;;;;;;;;;;5063126;28;20209;-68
2022/08/30 06:04:12;;;;;;;10.20;8.10;;;;;;;;;;5063042;28;20201;-68
2022/08/30 06:06:40;;;;;;;10.20;8.32;;;;;;;;;;5063123;28;20244;-68
2022/08/30 06:09:07;;;;;;;10.23;9.00;;;;;;;;;;5062832;28;20323;-68
2022/08/30 06:11:34;;;;;;;8.98;8.13;;;;;;;;;;5063246;28;20216;-68
2022/08/30 06:14:00;;;;;;;15.45;8.55;;;;;;;;;;5063338;28;20239;-68
2022/08/30 06:16:27;;;;;;;8.77;8.05;;;;;;;;;;5063205;28;20201;-68
2022/08/30 06:18:56;;;;;;;13.63;8.23;;;;;;;;;;5062523;28;20208;-68
2022/08/30 06:21:23;;;;;;;10.60;8.55;;;;;;;;;;5063308;28;20500;-68
2022/08/30 06:23:49;;;;;;;10.65;8.48;;;;;;;;;;5063133;28;20546;-68
2022/08/30 06:26:16;;;;;;;11.18;7.80;;;;;;;;;;5062807;28;20197;-68
2022/08/30 06:28:42;;;;;;;10.18;7.38;;;;;;;;;;5046146;28;20229;-64
2022/08/30 06:31:09;;;;;;;7.65;6.72;;;;;;;;;;5047972;28;20213;-64
2022/08/30 06:33:36;;;;;;;12.38;8.10;;;;;;;;;;5047516;28;20213;-64
2022/08/30 06:36:04;;;;;;;12.13;8.50;;;;;;;;;;5048551;28;20216;-63
2022/08/30 06:38:30;;;;;;;12.80;8.32;;;;;;;;;;5055790;28;20208;-64
2022/08/30 06:40:56;;;;;;;11.25;7.55;;;;;;;;;;5052147;28;20217;-64
2022/08/30 06:43:23;;;;;;;14.48;8.55;;;;;;;;;;5054625;28;20209;-64
2022/08/30 06:45:49;;;;;;;7.85;7.18;;;;;;;;;;5052194;28;20215;-64
2022/08/30 06:48:16;;;;;;;15.90;8.07;;;;;;;;;;5053944;28;20209;-63
2022/08/30 06:50:43;;;;;;;8.25;7.45;;;;;;;;;;5040831;28;20249;-65
2022/08/30 06:53:11;;;;;;;9.52;7.63;;;;;;;;;;5056009;28;20410;-65
2022/08/30 06:55:37;;;;;;;13.15;7.82;;;;;;;;;;5056948;28;20217;-64
2022/08/30 06:58:04;;;;;;;10.68;8.30;;;;;;;;;;5056914;28;20248;-65
2022/08/30 07:00:30;;;;;;;11.20;7.70;;;;;;;;;;5056426;28;20556;-64
2022/08/30 07:02:56;;;;;;;11.52;7.15;;;;;;;;;;5056736;28;20205;-64
2022/08/30 07:05:23;;;;;;;8.48;7.38;;;;;;;;;;5054750;28;20284;-64
2022/08/30 07:07:49;;;;;;;8.88;7.20;;;;;;;;;;5055579;28;20539;-64
2022/08/30 07:10:17;;;;;;;15.05;8.40;;;;;;;;;;5054485;28;20240;-64
2022/08/30 07:12:43;;;;;;;10.80;7.72;;;;;;;;;;5055214;28;20219;-64
2022/08/30 07:15:10;;;;;;;11.13;6.90;;;;;;;;;;5054818;28;20220;-64
2022/08/30 07:20:20;;;;;;;9.65;6.80;;;;;;;;;;5054605;28;20555;-65
2022/08/30 07:22:47;;;;;;;10.23;7.47;;;;;;;;;;5054494;28;20205;-65
2022/08/30 07:25:14;;;;;;;10.23;6.22;;;;;;;;;;5055209;28;20219;-65
2022/08/30 07:27:41;;;;;;;12.80;7.30;;;;;;;;;;5050746;28;20286;-64
2022/08/30 07:30:08;;;;;;;9.70;7.00;;;;;;;;;;5053920;28;20229;-65
2022/08/30 07:32:35;;;;;;;9.25;6.65;;;;;;;;;;5054965;28;20227;-65
2022/08/30 07:35:01;;;;;;;10.43;7.25;;;;;;;;;;5055119;28;20217;-65
2022/08/30 07:37:29;;;;;;;12.55;6.97;;;;;;;;;;5055355;28;20282;-65
2022/08/30 07:39:55;;;;;;;11.52;6.38;;;;;;;;;;5055393;28;20544;-65
2022/08/30 07:42:21;;;;;;;8.35;6.18;;;;;;;;;;5037885;28;20536;-64
2022/08/30 07:44:49;;;;;;;10.77;6.70;;;;;;;;;;5035448;28;20252;-64
2022/08/30 07:47:15;;;;;;;10.88;6.00;;;;;;;;;;5035051;28;20228;-64
2022/08/30 07:49:42;;;;;;;8.00;6.22;;;;;;;;;;5035107;28;20591;-65
2022/08/30 07:52:08;;;;;;;9.00;6.28;;;;;;;;;;5039435;28;20214;-65
2022/08/30 07:54:34;;;;;;;9.10;6.13;;;;;;;;;;5034917;28;20218;-65
2022/08/30 07:57:01;;;;;;;11.02;6.03;;;;;;;;;;5034893;28;20221;-64
2022/08/30 07:59:27;;;;;;;13.05;6.05;;;;;;;;;;5034863;28;20251;-64
2022/08/30 08:01:55;;;;;;;6.60;5.80;;;;;;;;;;5034801;28;20210;-64
2022/08/30 08:04:21;;;;;;;7.82;6.55;;;;;;;;;;5034912;28;20225;-64
2022/08/30 08:06:47;;;;;;;6.93;6.22;;;;;;;;;;5035536;28;20236;-65
2022/08/30 08:09:14;;;;;;;8.85;5.40;;;;;;;;;;5034278;28;20428;-62
2022/08/30 08:11:40;;;;;;;6.47;5.80;;;;;;;;;;5035137;28;20666;-63
2022/08/30 08:14:07;;;;;;;9.77;5.85;;;;;;;;;;5034708;28;20237;-64
2022/08/30 08:16:34;;;;;;;7.53;5.93;;;;;;;;;;5034762;28;20502;-64
2022/08/30 08:19:03;;;;;;;8.57;5.82;;;;;;;;;;5042593;28;20567;-64
2022/08/30 08:21:29;;;;;;;7.07;5.97;;;;;;;;;;5034762;28;20289;-65
2022/08/30 08:23:55;;;;;;;7.95;5.78;;;;;;;;;;5043218;28;20216;-65
2022/08/30 08:26:22;;;;;;;8.43;5.95;;;;;;;;;;5035142;28;20220;-65
2022/08/30 08:28:48;;;;;;;9.10;6.15;;;;;;;;;;5039155;28;20520;-65
2022/08/30 08:31:15;;;;;;;10.95;6.57;;;;;;;;;;5055212;28;20295;-65
2022/08/30 08:33:42;;;;;;;9.48;6.40;;;;;;;;;;5055638;28;20212;-65
2022/08/30 08:36:09;;;;;;;11.88;6.00;;;;;;;;;;5054888;28;20556;-63
2022/08/30 08:38:36;;;;;;;7.93;5.50;;;;;;;;;;5053989;28;20219;-63
2022/08/30 08:41:05;;;;;;;7.25;5.57;;;;;;;;;;5052285;28;20212;-64
2022/08/30 08:43:33;;;;;;;7.22;5.75;;;;;;;;;;5038134;28;20205;-64
2022/08/30 08:46:03;;;;;;;9.55;5.45;;;;;;;;;;5038257;28;20679;-65
2022/08/30 08:48:32;;;;;;;10.68;6.28;;;;;;;;;;5039559;28;20458;-65
2022/08/30 08:53:47;;;;;;;14.18;6.00;;;;;;;;;;5058492;28;20211;-65
2022/08/30 08:56:15;;;;;;;9.13;5.53;;;;;;;;;;5058027;28;20223;-65
2022/08/30 08:58:43;;;;;;;9.40;5.47;;;;;;;;;;5057263;28;20219;-65
2022/08/30 09:01:10;;;;;;;7.97;5.50;;;;;;;;;;5057756;28;20209;-65
2022/08/30 09:03:36;;;;;;;6.72;4.63;;;;;;;;;;5051336;28;20220;-67
2022/08/30 09:06:03;;;;;;;10.55;5.13;;;;;;;;;;5040867;28;20236;-67
2022/08/30 09:08:30;;;;;;;12.05;5.10;;;;;;;;;;5057706;28;20554;-67
2022/08/30 09:11:00;;;;;;;9.65;5.05;;;;;;;;;;5056791;28;20388;-67
2022/08/30 09:13:26;;;;;;;9.20;5.20;;;;;;;;;;5058086;28;20208;-64
2022/08/30 09:15:53;;;;;;;6.18;4.93;;;;;;;;;;5058098;28;20213;-64
2022/08/30 09:18:20;;;;;;;6.38;4.90;;;;;;;;;;5056896;28;20216;-64
2022/08/30 09:20:47;;;;;;;6.47;4.97;;;;;;;;;;5045786;28;20628;-65
2022/08/30 09:23:22;;;;;;;5.80;4.90;;;;;;;;;;5038250;28;20216;-65
2022/08/30 09:25:52;;;;;;;5.75;4.53;;;;;;;;;;5037823;28;20212;-65
2022/08/30 09:28:24;;;;;;;7.65;4.80;;;;;;;;;;5037074;28;20219;-66
2022/08/30 09:30:58;;;;;;;4.80;4.50;;;;;;;;;;5036887;28;20471;-66
2022/08/30 09:33:24;;;;;;;8.60;4.68;;;;;;;;;;5037291;28;20222;-64
2022/08/30 09:35:51;;;;;;;4.78;4.38;;;;;;;;;;5049077;28;20397;-65
2022/08/30 09:38:20;;;;;;;5.38;4.85;;;;;;;;;;5056922;28;20259;-64
2022/08/30 09:40:48;;;;;;;4.40;4.20;;;;;;;;;;5052262;28;20212;-65
2022/08/30 09:43:20;;;;;;;5.30;4.43;;;;;;;;;;5037026;28;20213;-65
2022/08/30 09:45:48;;;;;;;5.03;4.53;;;;;;;;;;5038605;28;20216;-64
2022/08/30 09:48:22;;;;;;;6.07;4.75;;;;;;;;;;5036865;28;20307;-65
2022/08/30 09:50:50;;;;;;;5.68;4.35;;;;;;;;;;5037260;28;20240;-65
2022/08/30 09:53:20;;;;;;;8.45;4.70;;;;;;;;;;5036265;28;20252;-64
2022/08/30 09:55:51;;;;;;;4.60;4.32;;;;;;;;;;5037208;28;20213;-64
2022/08/30 09:58:22;;;;;;;4.85;4.45;;;;;;;;;;5036653;28;20217;-65
2022/08/30 10:00:52;;;;;;;4.93;4.47;;;;;;;;;;5045641;28;20209;-65
2022/08/30 10:03:25;;;;;;;5.43;4.90;;;;;;;;;;5056163;28;20216;-65
2022/08/30 10:05:56;;;;;;;4.88;4.40;;;;;;;;;;5057384;28;20465;-65
2022/08/30 10:08:25;;;;;;;6.75;4.82;;;;;;;;;;5057354;28;20216;-65
2022/08/30 10:10:54;;;;;;;4.82;4.30;;;;;;;;;;5056536;28;20304;-66
2022/08/30 10:13:28;;;;;;;9.10;5.25;;;;;;;;;;5056875;28;20223;-65
2022/08/30 10:15:57;;;;;;;4.30;4.00;;;;;;;;;;5057029;28;20263;-65
2022/08/30 10:18:30;;;;;;;7.47;4.22;;;;;;;;;;5038652;28;20224;-65
2022/08/30 10:21:02;;;;;;;6.13;5.30;;;;;;;;;;5035930;28;20584;-65
2022/08/30 10:23:31;;;;;;;6.68;5.88;;;;;;;;;;5036972;28;20213;-65
2022/08/30 10:26:02;;;;;;;6.38;4.90;;;;;;;;;;5036228;28;20217;-65
2022/08/30 10:28:30;;;;;;;4.95;4.35;;;;;;;;;;5036170;28;20217;-65
2022/08/30 10:31:01;;;;;;;4.93;4.53;;;;;;;;;;5036144;28;20240;-65
2022/08/30 10:33:30;;;;;;;4.85;4.43;;;;;;;;;;5036237;28;20219;-65
2022/08/30 10:35:57;;;;;;;4.32;4.07;;;;;;;;;;5036400;28;20221;-65
2022/08/30 10:38:25;;;;;;;5.20;3.92;;;;;;;;;;5036548;28;20213;-65
2022/08/30 10:43:41;;;;;;;5.90;4.32;;;;;;;;;;5039460;28;20278;-65
2022/08/30 10:46:11;;;;;;;3.80;3.50;;;;;;;;;;5056437;28;20215;-65
2022/08/30 10:48:39;;;;;;;3.90;3.75;;;;;;;;;;5055892;28;20629;-65
2022/08/30 10:51:09;;;;;;;3.75;3.55;;;;;;;;;;5056598;28;20232;-65
2022/08/30 10:53:39;;;;;;;4.07;3.75;;;;;;;;;;5056452;28;20236;-65
2022/08/30 10:56:06;;;;;;;3.97;3.67;;;;;;;;;;5055028;28;20282;-65
2022/08/30 10:58:34;;;;;;;3.95;3.70;;;;;;;;;;5055786;28;20220;-66
2022/08/30 11:01:08;;;;;;;5.20;3.83;;;;;;;;;;5055883;28;20224;-63
2022/08/30 11:03:49;;;;;;;4.35;3.85;;;;;;;;;;5055927;28;20212;-63
2022/08/30 11:06:18;;;;;;;3.85;3.65;;;;;;;;;;5053938;28;20224;-65
2022/08/30 11:09:03;;;;;;;5.40;4.05;;;;;;;;;;5056040;28;20213;-65
2022/08/30 11:11:35;;;;;;;4.13;3.58;;;;;;;;;;5055990;28;20466;-65
2022/08/30 11:14:03;;;;;;;4.13;3.72;;;;;;;;;;5055685;28;20213;-65
2022/08/30 11:16:37;;;;;;;3.88;3.67;;;;;;;;;;5055715;28;20220;-64
2022/08/30 11:19:13;;;;;;;4.57;4.15;;;;;;;;;;5055304;28;20212;-62
2022/08/30 11:21:40;;;;;;;4.20;3.90;;;;;;;;;;5035791;28;20208;-62
2022/08/30 11:24:08;;;;;;;7.80;3.75;;;;;;;;;;5036281;28;20220;-64
2022/08/30 11:26:51;;;;;;;3.50;3.30;;;;;;;;;;5036501;28;20217;-64
2022/08/30 11:29:28;;;;;;;5.53;3.50;;;;;;;;;;5052567;28;20528;-65
2022/08/30 11:31:55;;;;;;;3.83;3.50;;;;;;;;;;5055281;28;20228;-65
2022/08/30 11:34:36;;;;;;;3.20;3.10;;;;;;;;;;5055354;28;20213;-65
2022/08/30 11:37:04;;;;;;;3.58;3.22;;;;;;;;;;5055476;28;20547;-65
2022/08/30 11:39:44;;;;;;;4.25;3.60;;;;;;;;;;5048352;28;20521;-63
2022/08/30 11:42:11;;;;;;;3.65;3.35;;;;;;;;;;5051624;28;20299;-66
2022/08/30 11:44:37;;;;;;;3.72;3.50;;;;;;;;;;5056112;28;20215;-64
2022/08/30 11:47:27;;;;;;;3.35;3.15;;;;;;;;;;5054689;28;20219;-62
2022/08/30 11:49:58;;;;;;;3.50;3.30;;;;;;;;;;5054419;28;20251;-65
2022/08/30 11:52:31;;;;;;;3.53;3.33;;;;;;;;;;5055292;28;20532;-65
2022/08/30 11:55:07;;;;;;;4.35;3.50;;;;;;;;;;5055972;28;20216;-65
2022/08/30 11:57:38;;;;;;;4.47;3.35;;;;;;;;;;5054958;28;20220;-62
2022/08/30 12:00:07;;;;;;;3.90;3.10;;;;;;;;;;5054426;28;20247;-66
2022/08/30 12:02:43;;;;;;;3.33;2.92;;;;;;;;;;5055685;28;20287;-64
2022/08/30 12:05:29;;;;;;;3.75;3.45;;;;;;;;;;5055367;28;20555;-66
2022/08/30 12:07:58;;;;;;;3.90;3.60;;;;;;;;;;5054179;28;20306;-65
2022/08/30 12:10:35;;;;;;;3.20;3.00;;;;;;;;;;5055004;28;20225;-64
2022/08/30 12:13:01;;;;;;;4.07;3.80;;;;;;;;;;5055295;28;20212;-66
2022/08/30 12:15:48;;;;;;;6.40;3.83;;;;;;;;;;5055847;28;20543;-65
2022/08/30 12:18:26;;;;;;;4.63;3.50;;;;;;;;;;5058258;28;20418;-65
2022/08/30 12:20:53;;;;;;;4.00;3.75;;;;;;;;;;5059348;28;20208;-66
2022/08/30 12:23:24;;;;;;;3.55;3.42;;;;;;;;;;5059007;28;20242;-64
2022/08/30 12:25:50;;;;;;;3.92;3.08;;;;;;;;;;5058585;28;20215;-65
2022/08/30 12:28:21;;;;;;;4.43;3.65;;;;;;;;;;5058077;28;20215;-65
2022/08/30 12:30:47;;;;;;;4.13;3.58;;;;;;;;;;5058221;28;20239;-65
2022/08/30 12:33:22;;;;;;;3.85;3.55;;;;;;;;;;5058663;28;20209;-65
2022/08/30 12:35:50;;;;;;;3.88;3.65;;;;;;;;;;5058436;28;20541;-64
2022/08/30 12:38:18;;;;;;;3.45;3.15;;;;;;;;;;5058517;28;20548;-66
2022/08/30 12:40:52;;;;;;;3.80;3.50;;;;;;;;;;5056018;28;20231;-66
2022/08/30 12:43:24;;;;;;;3.25;3.05;;;;;;;;;;5038868;28;20556;-66
2022/08/30 12:45:51;;;;;;;3.70;3.30;;;;;;;;;;5039186;28;20219;-66
2022/08/30 12:48:18;;;;;;;3.78;3.38;;;;;;;;;;5038215;28;20213;-65
2022/08/30 12:50:50;;;;;;;3.70;3.25;;;;;;;;;;5038323;28;20584;-65
2022/08/30 12:53:23;;;;;;;3.67;3.47;;;;;;;;;;5057480;28;20209;-65
2022/08/30 12:55:52;;;;;;;3.10;3.00;;;;;;;;;;5058374;28;20216;-64
2022/08/30 12:58:33;;;;;;;4.30;3.70;;;;;;;;;;5058486;28;20446;-66
2022/08/30 13:01:11;;;;;;;4.00;3.47;;;;;;;;;;5058051;28;20208;-64
2022/08/30 13:03:37;;;;;;;3.83;3.58;;;;;;;;;;5057760;28;20453;-64
2022/08/30 13:06:06;;;;;;;3.40;3.20;;;;;;;;;;5058009;28;20570;-64
2022/08/30 13:08:35;;;;;;;4.20;3.90;;;;;;;;;;5058512;28;20220;-64
2022/08/30 13:11:02;;;;;;;3.42;3.30;;;;;;;;;;5038535;28;20229;-64
2022/08/30 13:13:31;;;;;;;4.82;3.60;;;;;;;;;;5037917;28;20414;-64
2022/08/30 13:16:06;;;;;;;5.43;3.55;;;;;;;;;;5038331;28;20509;-65
2022/08/30 13:18:32;;;;;;;3.60;3.40;;;;;;;;;;5056294;28;20547;-65
2022/08/30 13:21:17;;;;;;;3.47;3.17;;;;;;;;;;5043207;28;20217;-65
2022/08/30 13:23:44;;;;;;;4.90;3.50;;;;;;;;;;5038159;28;20236;-64
2022/08/30 13:26:11;;;;;;;3.58;3.28;;;;;;;;;;5038235;28;20236;-64
2022/08/30 13:28:47;;;;;;;3.40;3.22;;;;;;;;;;5036414;28;20220;-64
2022/08/30 13:31:13;;;;;;;4.07;3.72;;;;;;;;;;5037847;28;20240;-63
2022/08/30 13:33:39;;;;;;;3.78;3.58;;;;;;;;;;5036992;28;20220;-63
2022/08/30 13:36:05;;;;;;;3.72;3.42;;;;;;;;;;5037889;28;20452;-63
2022/08/30 13:38:32;;;;;;;4.03;2.97;;;;;;;;;;5037579;28;20243;-63
2022/08/30 13:41:12;;;;;;;4.30;3.60;;;;;;;;;;5043482;28;20235;-64
2022/08/30 13:43:39;;;;;;;3.50;3.33;;;;;;;;;;5037284;28;20218;-62
2022/08/30 13:46:05;;;;;;;4.03;3.30;;;;;;;;;;5040178;28;20231;-62
2022/08/30 13:48:32;;;;;;;3.05;2.92;;;;;;;;;;5037893;28;20220;-63
2022/08/30 13:50:58;;;;;;;3.85;3.60;;;;;;;;;;5038493;28;20239;-63
2022/08/30 13:53:24;;;;;;;3.70;3.50;;;;;;;;;;5057638;28;20217;-63
2022/08/30 13:55:50;;;;;;;3.10;2.83;;;;;;;;;;5056230;28;20219;-62
2022/08/30 13:58:18;;;;;;;4.28;2.95;;;;;;;;;;5056669;28;20520;-62
2022/08/30 14:00:45;;;;;;;3.88;3.22;;;;;;;;;;5056359;28;20212;-62
2022/08/30 14:03:11;;;;;;;3.40;3.10;;;;;;;;;;5056171;28;20556;-62
2022/08/30 14:05:38;;;;;;;3.33;3.10;;;;;;;;;;5056378;28;20228;-62
2022/08/30 14:08:05;;;;;;;3.95;3.53;;;;;;;;;;5050304;28;20217;-62
2022/08/30 14:10:31;;;;;;;3.78;3.47;;;;;;;;;;5038626;28;20205;-62
2022/08/30 14:12:58;;;;;;;5.28;3.80;;;;;;;;;;5049125;28;20229;-62
2022/08/30 14:15:25;;;;;;;3.92;3.58;;;;;;;;;;5047233;28;20197;-62
2022/08/30 14:17:51;;;;;;;3.40;3.30;;;;;;;;;;5056389;28;20215;-61
2022/08/30 14:20:18;;;;;;;6.43;3.55;;;;;;;;;;5056141;28;20546;-62
2022/08/30 14:22:44;;;;;;;4.20;3.47;;;;;;;;;;5056429;28;20218;-62
2022/08/30 14:25:11;;;;;;;3.88;3.38;;;;;;;;;;5056837;28;20220;-62
2022/08/30 14:27:37;;;;;;;4.30;3.38;;;;;;;;;;5056086;28;20570;-62
2022/08/30 14:30:03;;;;;;;3.35;3.15;;;;;;;;;;5055411;28;20219;-62
2022/08/30 14:32:31;;;;;;;3.63;3.42;;;;;;;;;;5057123;28;20490;-62
2022/08/30 14:34:57;;;;;;;3.38;3.15;;;;;;;;;;5051026;28;20224;-62
2022/08/30 14:37:23;;;;;;;3.60;3.22;;;;;;;;;;5036353;28;20220;-62
2022/08/30 14:39:50;;;;;;;3.65;3.45;;;;;;;;;;5038098;28;20222;-62
2022/08/30 14:42:16;;;;;;;3.88;3.67;;;;;;;;;;5056405;28;20208;-62
2022/08/30 14:44:42;;;;;;;4.20;3.92;;;;;;;;;;5056436;28;20258;-62
2022/08/30 14:47:09;;;;;;;4.03;3.67;;;;;;;;;;5055382;28;20212;-62
2022/08/30 14:49:36;;;;;;;4.05;3.50;;;;;;;;;;5055541;28;20218;-62
2022/08/30 14:52:03;;;;;;;4.07;3.78;;;;;;;;;;5056364;28;20232;-62
2022/08/30 14:54:30;;;;;;;4.43;3.60;;;;;;;;;;5056184;28;20212;-62
2022/08/30 14:56:56;;;;;;;3.75;3.45;;;;;;;;;;5055437;28;20532;-62